Time;durP1;ratioP1;P1;durP2;ratioP2;P2;SDS_P1;SDS_P2;PMS_P1;PMS_P2;Temp;Humidity;BMP_temperature;BMP_pressure;BME280_temperature;BME280_humidity;BME280_pressure;Samples;Min_cycle;Max_cycle;Signal;HPM_P1;HPM_P2
2023/03/06 00:00:49;;;;;;;5.20;1.80;;;2.50;99.90;;;;;;5074379;28;20044;-58
2023/03/06 00:03:15;;;;;;;8.27;1.65;;;2.50;99.90;;;;;;5076066;28;20075;-59
2023/03/06 00:05:41;;;;;;;14.27;2.60;;;2.50;99.90;;;;;;5073640;28;20037;-58
2023/03/06 00:08:07;;;;;;;10.30;2.57;;;2.50;99.90;;;;;;5071697;28;20041;-58
2023/03/06 00:10:32;;;;;;;7.10;1.92;;;2.60;99.90;;;;;;5075718;28;20517;-55
2023/03/06 00:13:00;;;;;;;11.32;2.13;;;2.60;99.90;;;;;;5079267;28;20033;-58
2023/03/06 00:15:27;;;;;;;10.52;2.80;;;2.60;99.90;;;;;;5067049;28;20048;-58
2023/03/06 00:17:53;;;;;;;7.13;2.35;;;2.60;99.90;;;;;;5065175;28;20482;-57
2023/03/06 00:20:19;;;;;;;12.88;2.88;;;2.60;99.90;;;;;;5081139;28;20032;-57
2023/03/06 00:22:45;;;;;;;11.50;4.25;;;2.60;99.90;;;;;;5084290;28;20032;-57
2023/03/06 00:25:17;;;;;;;9.00;1.98;;;2.50;99.90;;;;;;5069999;28;20071;-56
2023/03/06 00:27:43;;;;;;;10.25;1.95;;;2.40;99.90;;;;;;5079120;28;20051;-54
2023/03/06 00:30:15;;;;;;;9.55;2.78;;;2.30;99.90;;;;;;5071511;28;20112;-55
2023/03/06 00:32:41;;;;;;;9.02;2.83;;;2.30;99.90;;;;;;5069692;28;20093;-56
2023/03/06 00:35:07;;;;;;;8.70;2.83;;;2.20;99.90;;;;;;5075108;28;20047;-56
2023/03/06 00:37:32;;;;;;;5.93;2.13;;;2.20;99.90;;;;;;5075991;28;20127;-57
2023/03/06 00:39:58;;;;;;;3.53;2.80;;;2.10;99.90;;;;;;5071576;28;20036;-55
2023/03/06 00:42:24;;;;;;;8.73;2.65;;;2.10;99.90;;;;;;5067747;28;20549;-57
2023/03/06 00:44:49;;;;;;;3.53;2.27;;;2.10;99.90;;;;;;5074775;28;20647;-57
2023/03/06 00:47:18;;;;;;;6.67;2.33;;;2.10;99.90;;;;;;5073707;28;20088;-54
2023/03/06 00:49:44;;;;;;;5.75;1.92;;;2.10;99.90;;;;;;5080488;28;20033;-56
2023/03/06 00:52:11;;;;;;;9.52;2.67;;;2.10;99.90;;;;;;5072752;28;20127;-58
2023/03/06 00:54:36;;;;;;;;;;;2.10;99.90;;;;;;5058613;28;20693;-55
2023/03/06 00:57:02;;;;;;;8.25;2.33;;;2.10;99.90;;;;;;5061056;28;19916;-57
2023/03/06 00:59:27;;;;;;;3.17;2.17;;;2.10;99.90;;;;;;5064313;28;20037;-56
2023/03/06 01:01:53;;;;;;;12.77;3.40;;;2.20;99.90;;;;;;5058569;28;20041;-54
2023/03/06 01:04:19;;;;;;;8.75;2.35;;;2.20;99.90;;;;;;5062540;28;20151;-54
2023/03/06 01:06:45;;;;;;;9.90;4.18;;;2.20;99.90;;;;;;5051729;28;20506;-57
2023/03/06 01:09:11;;;;;;;7.30;3.33;;;2.20;99.90;;;;;;5066496;28;20040;-56
2023/03/06 01:11:36;;;;;;;6.33;3.73;;;2.30;99.90;;;;;;5069964;28;20452;-57
2023/03/06 01:14:02;;;;;;;9.20;5.17;;;2.30;99.90;;;;;;5066807;28;20039;-57
2023/03/06 01:16:28;;;;;;;8.20;3.83;;;2.30;99.90;;;;;;5052254;28;20344;-54
2023/03/06 01:18:53;;;;;;;7.30;4.53;;;2.30;99.90;;;;;;5050632;28;20059;-54
2023/03/06 01:21:19;;;;;;;12.43;4.77;;;2.30;99.90;;;;;;5052751;28;20064;-57
2023/03/06 01:23:46;;;;;;;7.57;4.63;;;2.40;99.90;;;;;;5055856;28;20040;-57
2023/03/06 01:26:11;;;;;;;;;;;2.40;99.90;;;;;;5051276;28;20280;-56
2023/03/06 01:28:38;;;;;;;8.20;4.90;;;2.40;99.90;;;;;;5064525;28;20300;-57
2023/03/06 01:31:04;;;;;;;7.45;5.00;;;2.40;99.90;;;;;;5053130;28;20406;-55
2023/03/06 01:33:30;;;;;;;6.22;4.45;;;2.40;99.90;;;;;;5051942;28;20080;-57
2023/03/06 01:35:55;;;;;;;15.43;5.88;;;2.40;99.90;;;;;;5068705;28;20072;-57
2023/03/06 01:38:21;;;;;;;9.33;4.60;;;2.40;99.90;;;;;;5070425;28;20440;-56
2023/03/06 01:40:47;;;;;;;15.93;7.10;;;2.50;99.90;;;;;;5071197;28;20714;-57
2023/03/06 01:43:27;;;;;;;6.03;5.40;;;2.50;99.90;;;;;;5067530;28;20043;-57
2023/03/06 01:46:19;;;;;;;10.35;5.47;;;2.50;99.90;;;;;;5054643;28;20041;-56
2023/03/06 01:48:47;;;;;;;11.13;5.03;;;2.50;99.90;;;;;;5050195;28;20123;-56
2023/03/06 01:51:14;;;;;;;9.43;5.22;;;2.60;99.90;;;;;;5069913;28;20033;-56
2023/03/06 01:53:42;;;;;;;5.28;4.78;;;2.50;99.90;;;;;;5067889;28;20067;-57
2023/03/06 01:56:08;;;;;;;13.30;5.03;;;2.50;99.90;;;;;;5054263;28;20422;-55
2023/03/06 01:58:34;;;;;;;7.55;5.45;;;2.60;99.90;;;;;;5049740;28;20037;-57
2023/03/06 02:01:00;;;;;;;10.82;5.30;;;2.60;99.90;;;;;;5051071;28;20064;-55
2023/03/06 02:03:27;;;;;;;10.90;6.10;;;2.60;99.90;;;;;;5057647;28;20283;-58
2023/03/06 02:05:53;;;;;;;11.50;5.38;;;2.60;99.90;;;;;;5056479;28;20128;-55
2023/03/06 02:08:22;;;;;;;8.98;6.47;;;2.60;99.90;;;;;;5049807;28;20120;-57
2023/03/06 02:11:10;;;;;;;7.63;5.65;;;2.60;99.90;;;;;;5062952;28;20489;-54
2023/03/06 02:13:37;;;;;;;9.55;5.72;;;2.60;99.90;;;;;;5069027;28;20116;-55
2023/03/06 02:16:04;;;;;;;12.38;6.88;;;2.70;99.90;;;;;;5055837;28;20129;-56
2023/03/06 02:18:30;;;;;;;8.70;5.45;;;2.60;99.90;;;;;;5049698;28;20410;-58
2023/03/06 02:21:02;;;;;;;9.85;5.65;;;2.70;99.90;;;;;;5062147;28;20036;-57
2023/03/06 02:23:35;;;;;;;10.00;5.65;;;2.70;99.90;;;;;;5067312;28;20064;-55
2023/03/06 02:26:02;;;;;;;8.63;5.55;;;2.70;99.90;;;;;;5058664;28;20084;-56
2023/03/06 02:28:28;;;;;;;6.07;4.38;;;2.70;99.90;;;;;;5049429;28;20102;-57
2023/03/06 02:30:55;;;;;;;7.60;4.63;;;2.70;99.90;;;;;;5060835;28;20398;-56
2023/03/06 02:33:25;;;;;;;8.15;5.15;;;2.70;99.90;;;;;;5050602;28;20799;-55
2023/03/06 02:35:54;;;;;;;5.80;4.53;;;2.70;99.90;;;;;;5066166;28;20043;-57
2023/03/06 02:38:24;;;;;;;10.57;4.90;;;2.70;99.90;;;;;;5068639;28;20041;-56
2023/03/06 02:40:51;;;;;;;11.95;5.38;;;2.70;99.90;;;;;;5059967;28;20119;-55
2023/03/06 02:43:22;;;;;;;;;;;2.70;99.90;;;;;;5050420;28;20048;-57
2023/03/06 02:45:49;;;;;;;9.00;5.05;;;2.70;99.90;;;;;;5059366;28;19970;-56
2023/03/06 02:48:17;;;;;;;6.10;4.25;;;2.70;99.90;;;;;;5069033;28;20086;-58
2023/03/06 02:50:44;;;;;;;7.82;5.03;;;2.70;99.90;;;;;;5054156;28;20033;-56
2023/03/06 02:53:11;;;;;;;15.55;4.90;;;2.80;99.90;;;;;;5051397;28;20063;-57
2023/03/06 02:55:37;;;;;;;7.93;4.85;;;2.80;99.90;;;;;;5055760;28;20578;-56
2023/03/06 02:58:04;;;;;;;7.90;4.93;;;2.80;99.90;;;;;;5068840;28;20040;-57
2023/03/06 03:00:30;;;;;;;6.80;4.68;;;2.80;99.90;;;;;;5057708;28;20406;-58
2023/03/06 03:02:56;;;;;;;10.23;5.30;;;2.80;99.90;;;;;;5069989;28;20071;-54
2023/03/06 03:05:22;;;;;;;8.70;6.07;;;2.80;99.90;;;;;;5068101;28;20500;-57
2023/03/06 03:07:48;;;;;;;8.10;5.65;;;2.80;99.90;;;;;;5048958;28;20037;-57
2023/03/06 03:10:14;;;;;;;11.10;6.00;;;2.80;99.90;;;;;;5051032;28;20032;-55
2023/03/06 03:12:40;;;;;;;10.10;6.43;;;2.80;99.90;;;;;;5068344;28;20037;-57
2023/03/06 03:15:06;;;;;;;8.70;6.30;;;2.80;99.90;;;;;;5061967;28;20094;-55
2023/03/06 03:17:35;;;;;;;10.10;6.70;;;2.80;99.90;;;;;;5063117;28;20532;-54
2023/03/06 03:20:00;;;;;;;9.82;6.70;;;2.80;99.90;;;;;;5058471;28;20039;-56
2023/03/06 03:22:26;;;;;;;13.60;7.47;;;2.80;99.90;;;;;;5065039;28;20036;-57
2023/03/06 03:24:51;;;;;;;10.67;7.80;;;2.80;99.90;;;;;;5069109;28;20397;-56
2023/03/06 03:27:17;;;;;;;11.43;7.30;;;2.80;99.90;;;;;;5055278;28;20036;-55
2023/03/06 03:29:42;;;;;;;12.97;7.17;;;2.80;99.90;;;;;;5049980;28;20525;-57
2023/03/06 03:32:08;;;;;;;9.77;6.60;;;2.80;99.90;;;;;;5060796;28;20032;-57
2023/03/06 03:34:34;;;;;;;16.05;8.45;;;2.70;99.90;;;;;;5069174;28;20036;-55
2023/03/06 03:37:00;;;;;;;10.73;8.33;;;2.70;99.90;;;;;;5060849;28;20135;-55
2023/03/06 03:39:25;;;;;;;12.43;7.60;;;2.70;99.90;;;;;;5048268;28;20052;-58
2023/03/06 03:41:51;;;;;;;10.07;8.33;;;2.70;99.90;;;;;;5057213;28;20401;-58
2023/03/06 03:44:16;;;;;;;19.17;9.83;;;2.70;99.90;;;;;;5069903;28;20646;-54
2023/03/06 03:46:42;;;;;;;17.83;8.77;;;2.70;99.90;;;;;;5064204;28;20115;-57
2023/03/06 03:49:07;;;;;;;13.43;8.43;;;2.70;99.90;;;;;;5048415;28;20033;-57
2023/03/06 03:51:33;;;;;;;16.20;9.27;;;2.70;99.90;;;;;;5053833;28;20039;-57
2023/03/06 03:53:59;;;;;;;12.23;9.80;;;2.70;99.90;;;;;;5069545;28;20086;-55
2023/03/06 03:56:25;;;;;;;19.40;9.77;;;2.70;99.90;;;;;;5067326;28;20037;-54
2023/03/06 03:58:51;;;;;;;12.02;9.35;;;2.70;99.90;;;;;;5048205;28;20108;-58
2023/03/06 04:01:17;;;;;;;15.10;10.40;;;2.70;99.90;;;;;;5049928;28;20049;-57
2023/03/06 04:03:44;;;;;;;15.57;9.87;;;2.60;99.90;;;;;;5069816;28;20369;-54
2023/03/06 04:06:09;;;;;;;;;;;2.60;99.90;;;;;;5058487;28;20040;-55
2023/03/06 04:08:35;;;;;;;14.68;9.27;;;2.70;99.90;;;;;;5038630;28;19925;-57
2023/03/06 04:11:02;;;;;;;16.87;10.30;;;2.60;99.90;;;;;;5067689;28;20032;-57
2023/03/06 04:13:28;;;;;;;14.27;10.18;;;2.60;99.90;;;;;;5059408;28;20648;-55
2023/03/06 04:15:54;;;;;;;14.85;9.25;;;2.60;99.90;;;;;;5050502;28;20115;-54
2023/03/06 04:18:20;;;;;;;12.57;8.80;;;2.60;99.90;;;;;;5065649;28;20501;-56
2023/03/06 04:20:47;;;;;;;13.15;9.45;;;2.60;99.90;;;;;;5068258;28;20040;-56
2023/03/06 04:23:13;;;;;;;17.90;10.55;;;2.60;99.90;;;;;;5063802;28;20033;-57
2023/03/06 04:25:39;;;;;;;;;;;2.60;99.90;;;;;;5048413;28;20102;-58
2023/03/06 04:28:05;;;;;;;11.73;8.90;;;2.60;99.90;;;;;;5053919;28;20189;-57
2023/03/06 04:30:31;;;;;;;14.30;9.48;;;2.70;99.90;;;;;;5071518;28;20529;-57
2023/03/06 04:32:57;;;;;;;12.02;9.23;;;2.70;99.90;;;;;;5071548;28;20040;-57
2023/03/06 04:35:22;;;;;;;14.85;9.55;;;2.70;99.90;;;;;;5053104;28;20043;-55
2023/03/06 04:37:48;;;;;;;14.33;9.70;;;2.60;99.90;;;;;;5051167;28;20083;-58
2023/03/06 04:40:27;;;;;;;13.07;9.65;;;2.60;99.90;;;;;;5072408;28;20332;-56
2023/03/06 04:42:53;;;;;;;11.93;8.75;;;2.70;99.90;;;;;;5072496;28;20045;-58
2023/03/06 04:45:19;;;;;;;;;;;2.70;99.90;;;;;;5053497;28;20509;-56
2023/03/06 04:47:45;;;;;;;13.63;8.18;;;2.70;99.90;;;;;;5051261;28;19970;-57
2023/03/06 04:50:11;;;;;;;11.90;8.80;;;2.80;99.90;;;;;;5068236;28;20082;-54
2023/03/06 04:52:36;;;;;;;10.40;8.30;;;2.70;99.90;;;;;;5071924;28;20178;-57
2023/03/06 04:55:07;;;;;;;12.73;8.17;;;2.70;99.90;;;;;;5056972;28;20045;-57
2023/03/06 04:57:37;;;;;;;12.52;8.60;;;2.80;99.90;;;;;;5062285;28;20044;-56
2023/03/06 05:00:05;;;;;;;11.48;9.27;;;2.80;99.90;;;;;;5071911;28;20592;-57
2023/03/06 05:02:30;;;;;;;10.05;8.95;;;2.80;99.90;;;;;;5071837;28;20044;-54
2023/03/06 05:04:56;;;;;;;8.25;7.45;;;2.80;99.90;;;;;;5060044;28;20552;-54
2023/03/06 05:07:22;;;;;;;9.13;6.87;;;2.80;99.90;;;;;;5051700;28;20037;-58
2023/03/06 05:09:47;;;;;;;4.63;3.97;;;2.80;99.90;;;;;;5060390;28;20148;-57
2023/03/06 05:12:13;;;;;;;1.47;1.27;;;2.80;99.90;;;;;;5070635;28;20538;-56
2023/03/06 05:14:38;;;;;;;1.30;0.70;;;2.90;99.90;;;;;;5063249;28;20033;-55
2023/03/06 05:17:04;;;;;;;0.80;0.80;;;2.80;99.90;;;;;;5052547;28;20106;-57
2023/03/06 05:19:30;;;;;;;0.50;0.40;;;2.80;99.90;;;;;;5056478;28;20512;-58
2023/03/06 05:21:55;;;;;;;1.70;0.83;;;2.80;99.90;;;;;;5070444;28;20036;-56
2023/03/06 05:24:21;;;;;;;2.30;1.10;;;2.80;99.90;;;;;;5066906;28;20434;-55
2023/03/06 05:26:46;;;;;;;3.60;0.70;;;2.80;99.90;;;;;;5051981;28;20188;-54
2023/03/06 05:29:12;;;;;;;0.87;0.67;;;2.70;99.90;;;;;;5054217;28;20083;-58
2023/03/06 05:31:37;;;;;;;1.27;0.83;;;2.70;99.90;;;;;;5069681;28;20099;-55
2023/03/06 05:34:03;;;;;;;1.47;0.87;;;2.70;99.90;;;;;;5070064;28;20036;-55
2023/03/06 05:36:28;;;;;;;0.77;0.70;;;2.60;99.90;;;;;;5051357;28;20090;-56
2023/03/06 05:38:54;;;;;;;1.77;0.73;;;2.60;99.90;;;;;;5049971;28;20052;-57
2023/03/06 05:41:20;;;;;;;1.00;0.70;;;2.60;99.90;;;;;;5069659;28;20037;-55
2023/03/06 05:43:46;;;;;;;1.90;0.90;;;2.50;99.90;;;;;;5063595;28;20148;-57
2023/03/06 05:46:11;;;;;;;0.80;0.60;;;2.50;99.90;;;;;;5051494;28;20087;-57
2023/03/06 05:48:38;;;;;;;0.70;0.60;;;2.50;99.90;;;;;;5051346;28;20044;-57
2023/03/06 05:51:04;;;;;;;1.95;0.70;;;2.50;99.90;;;;;;5053018;28;20116;-57
2023/03/06 05:53:31;;;;;;;2.15;0.88;;;2.40;99.90;;;;;;5070557;28;20044;-57
2023/03/06 05:55:56;;;;;;;;;;;2.40;99.90;;;;;;5057182;28;20048;-57
2023/03/06 05:58:22;;;;;;;1.02;0.60;;;2.30;99.90;;;;;;5048809;28;20293;-55
2023/03/06 06:00:47;;;;;;;0.67;0.50;;;2.40;99.90;;;;;;5063514;28;20165;-58
2023/03/06 06:03:13;;;;;;;1.70;0.60;;;2.40;99.90;;;;;;5057799;28;20033;-58
2023/03/06 06:05:38;;;;;;;1.13;0.53;;;2.30;99.90;;;;;;5051072;28;20115;-57
2023/03/06 06:08:04;;;;;;;1.52;0.50;;;2.30;99.90;;;;;;5049301;28;20040;-54
2023/03/06 06:10:30;;;;;;;1.07;0.67;;;2.40;99.90;;;;;;5058449;28;20037;-56
2023/03/06 06:12:55;;;;;;;0.70;0.70;;;2.30;99.90;;;;;;5065782;28;20431;-57
2023/03/06 06:15:21;;;;;;;0.80;0.60;;;2.30;99.90;;;;;;5067413;28;20036;-57
2023/03/06 06:17:46;;;;;;;0.50;0.40;;;2.40;99.90;;;;;;5069458;28;20041;-56
2023/03/06 06:20:13;;;;;;;0.80;0.40;;;2.30;99.90;;;;;;5068719;28;20040;-56
2023/03/06 06:22:38;;;;;;;1.15;0.45;;;2.30;99.90;;;;;;5070501;28;20489;-58
2023/03/06 06:25:05;;;;;;;0.77;0.73;;;2.30;99.90;;;;;;5063378;28;20033;-57
2023/03/06 06:27:30;;;;;;;1.10;0.50;;;2.30;99.90;;;;;;5049444;28;20043;-57
2023/03/06 06:29:56;;;;;;;0.90;0.50;;;2.30;99.90;;;;;;5061955;28;20055;-57
2023/03/06 06:32:22;;;;;;;1.40;0.80;;;2.30;99.90;;;;;;5049297;28;20089;-57
2023/03/06 06:34:47;;;;;;;1.90;0.63;;;2.30;99.90;;;;;;5059648;28;20532;-58
2023/03/06 06:37:13;;;;;;;2.63;0.40;;;2.30;99.90;;;;;;5056124;28;20091;-59
2023/03/06 06:39:39;;;;;;;3.40;0.47;;;2.20;99.90;;;;;;5050851;28;20393;-57
2023/03/06 06:42:05;;;;;;;3.47;1.10;;;2.20;99.90;;;;;;5068161;28;20554;-56
2023/03/06 06:44:30;;;;;;;1.60;0.93;;;2.20;99.90;;;;;;5066384;28;20041;-57
2023/03/06 06:46:56;;;;;;;1.67;0.50;;;2.30;99.90;;;;;;5050307;28;20153;-56
2023/03/06 06:49:21;;;;;;;1.57;0.70;;;2.20;99.90;;;;;;5049176;28;20112;-57
2023/03/06 06:51:47;;;;;;;0.73;0.50;;;2.30;99.90;;;;;;5063553;28;20541;-57
2023/03/06 06:54:12;;;;;;;2.20;0.60;;;2.30;99.90;;;;;;5070293;28;20044;-58
2023/03/06 06:56:38;;;;;;;1.77;0.60;;;2.50;99.90;;;;;;5051356;28;20045;-56
2023/03/06 06:59:04;;;;;;;3.30;0.40;;;2.70;99.90;;;;;;5048087;28;20492;-56
2023/03/06 07:01:30;;;;;;;9.47;0.87;;;2.90;99.90;;;;;;5061524;28;20088;-56
2023/03/06 07:03:55;;;;;;;2.03;0.52;;;3.10;99.90;;;;;;5058907;28;20498;-56
2023/03/06 07:06:21;;;;;;;0.50;0.40;;;3.30;99.90;;;;;;5061962;28;20036;-56
2023/03/06 07:08:47;;;;;;;1.95;0.73;;;3.60;99.90;;;;;;5068857;28;20306;-57
2023/03/06 07:11:18;;;;;;;1.63;0.70;;;3.80;99.90;;;;;;5067386;28;20512;-57
2023/03/06 07:13:45;;;;;;;0.77;0.50;;;4.00;99.90;;;;;;5069748;28;20040;-54
2023/03/06 07:16:11;;;;;;;1.15;0.52;;;4.10;99.90;;;;;;5066903;28;20270;-56
2023/03/06 07:18:36;;;;;;;2.08;0.93;;;4.10;99.90;;;;;;5068095;28;20055;-53
2023/03/06 07:21:02;;;;;;;3.67;1.80;;;4.10;99.90;;;;;;5065064;28;20059;-53
2023/03/06 07:23:28;;;;;;;1.40;0.63;;;4.20;99.90;;;;;;5048908;28;20110;-54
2023/03/06 07:25:54;;;;;;;1.20;0.40;;;4.30;99.90;;;;;;5062591;28;20033;-55
2023/03/06 07:28:20;;;;;;;1.35;0.40;;;4.40;99.90;;;;;;5060151;28;20783;-56
2023/03/06 07:30:46;;;;;;;1.33;0.40;;;4.40;99.90;;;;;;5054002;28;20548;-59
2023/03/06 07:33:12;;;;;;;0.60;0.40;;;4.40;99.90;;;;;;5051643;28;20040;-55
2023/03/06 07:35:38;;;;;;;1.17;0.60;;;4.30;99.90;;;;;;5045874;28;20028;-58
2023/03/06 07:38:03;;;;;;;1.70;0.40;;;4.20;99.90;;;;;;5057007;28;20306;-58
2023/03/06 07:40:29;;;;;;;1.57;0.40;;;4.10;99.90;;;;;;5046418;28;20063;-54
2023/03/06 07:42:56;;;;;;;2.87;0.53;;;4.00;99.90;;;;;;5046701;28;20083;-57
2023/03/06 07:45:22;;;;;;;2.45;0.40;;;3.90;99.90;;;;;;5045397;28;20041;-57
2023/03/06 07:47:51;;;;;;;1.52;0.45;;;3.90;99.90;;;;;;5044907;28;20043;-56
2023/03/06 07:50:18;;;;;;;0.80;0.50;;;3.80;99.90;;;;;;5047735;28;20041;-54
2023/03/06 07:52:43;;;;;;;1.42;0.43;;;3.70;99.90;;;;;;5051982;28;20417;-57
2023/03/06 07:55:10;;;;;;;1.10;0.80;;;3.60;99.90;;;;;;5045207;28;20125;-56
2023/03/06 07:57:36;;;;;;;;;;;3.60;99.90;;;;;;5044263;28;20048;-58
2023/03/06 08:00:07;;;;;;;1.45;0.60;;;3.60;99.90;;;;;;5046201;28;19967;-59
2023/03/06 08:02:33;;;;;;;0.63;0.40;;;3.60;99.90;;;;;;5049462;28;20104;-57
2023/03/06 08:04:58;;;;;;;1.40;0.60;;;3.60;99.90;;;;;;5050840;28;20046;-57
2023/03/06 08:07:24;;;;;;;0.83;0.50;;;3.70;99.90;;;;;;5051821;28;20044;-55
2023/03/06 08:09:49;;;;;;;2.73;0.63;;;3.70;99.90;;;;;;5049723;28;20065;-58
2023/03/06 08:12:15;;;;;;;1.40;0.40;;;3.70;99.90;;;;;;5056011;28;20041;-57
2023/03/06 08:14:41;;;;;;;2.57;0.77;;;3.80;99.90;;;;;;5048987;28;20460;-57
2023/03/06 08:17:06;;;;;;;0.40;0.40;;;3.80;99.90;;;;;;5048920;28;20065;-58
2023/03/06 08:19:32;;;;;;;3.78;1.05;;;3.80;99.90;;;;;;5048988;28;20029;-55
2023/03/06 08:21:58;;;;;;;0.50;0.47;;;3.80;99.90;;;;;;5056772;28;20445;-56
2023/03/06 08:24:23;;;;;;;1.33;0.80;;;3.80;99.90;;;;;;5060384;28;20479;-57
2023/03/06 08:26:49;;;;;;;0.77;0.40;;;3.80;99.90;;;;;;5053916;28;20287;-54
2023/03/06 08:29:15;;;;;;;1.58;0.60;;;3.90;99.90;;;;;;5048443;28;20048;-57
2023/03/06 08:31:42;;;;;;;0.57;0.43;;;4.10;99.90;;;;;;5056807;28;20029;-56
2023/03/06 08:34:15;;;;;;;1.70;0.50;;;4.30;99.90;;;;;;5047166;28;20084;-58
2023/03/06 08:36:40;;;;;;;0.50;0.30;;;4.60;99.90;;;;;;5048585;28;20044;-53
2023/03/06 08:39:06;;;;;;;1.58;1.08;;;4.60;99.90;;;;;;5047265;28;20033;-55
2023/03/06 08:41:33;;;;;;;1.23;0.40;;;4.70;99.90;;;;;;5057702;28;20068;-54
2023/03/06 08:43:58;;;;;;;0.77;0.40;;;4.80;99.90;;;;;;5051727;28;20436;-58
2023/03/06 08:46:26;;;;;;;0.90;0.47;;;4.90;99.90;;;;;;5051811;28;20037;-55
2023/03/06 08:48:51;;;;;;;1.10;0.43;;;5.00;99.90;;;;;;5054713;28;20079;-56
2023/03/06 08:51:18;;;;;;;1.53;0.60;;;5.10;99.90;;;;;;5055854;28;20051;-56
2023/03/06 08:53:44;;;;;;;2.20;0.40;;;5.20;99.90;;;;;;5051820;28;20616;-57
2023/03/06 08:56:19;;;;;;;2.92;0.30;;;5.30;99.90;;;;;;5057334;28;20148;-58
2023/03/06 08:58:45;;;;;;;1.65;0.40;;;5.40;99.90;;;;;;5058538;28;20048;-55
2023/03/06 09:01:38;;;;;;;2.33;0.32;;;5.50;99.90;;;;;;5053840;28;20040;-55
2023/03/06 09:04:06;;;;;;;1.85;0.30;;;5.70;99.90;;;;;;5055003;28;20107;-57
2023/03/06 09:06:34;;;;;;;1.10;0.68;;;5.80;99.90;;;;;;5054909;28;20043;-53
2023/03/06 09:09:00;;;;;;;2.15;0.40;;;5.90;99.90;;;;;;5053360;28;20513;-54
2023/03/06 09:11:26;;;;;;;2.50;0.30;;;6.00;99.90;;;;;;5057637;28;20045;-53
2023/03/06 09:13:52;;;;;;;;;;;6.00;99.90;;;;;;5054831;28;20379;-58
2023/03/06 09:16:18;;;;;;;0.73;0.30;;;6.20;99.90;;;;;;5047404;28;19962;-59
2023/03/06 09:18:44;;;;;;;0.60;0.30;;;6.30;99.90;;;;;;5053373;28;20059;-58
2023/03/06 09:21:10;;;;;;;2.00;0.43;;;6.40;99.90;;;;;;5058758;28;20040;-55
2023/03/06 09:23:38;;;;;;;2.08;0.40;;;6.60;99.90;;;;;;5058846;28;20295;-55
2023/03/06 09:26:05;;;;;;;3.40;0.45;;;6.70;99.90;;;;;;5048138;28;20494;-58
2023/03/06 09:28:33;;;;;;;1.35;0.30;;;6.70;99.90;;;;;;5049083;28;20053;-58
2023/03/06 09:30:59;;;;;;;2.95;0.30;;;6.80;99.90;;;;;;5050551;28;20510;-58
2023/03/06 09:33:27;;;;;;;3.00;0.40;;;6.90;99.90;;;;;;5058479;28;20343;-57
2023/03/06 09:35:55;;;;;;;1.00;0.30;;;7.00;99.90;;;;;;5051880;28;20041;-60
2023/03/06 09:38:23;;;;;;;0.93;0.35;;;7.10;99.90;;;;;;5055783;28;20032;-58
2023/03/06 09:41:01;;;;;;;0.93;0.20;;;7.10;99.90;;;;;;5049964;28;20336;-59
2023/03/06 09:43:27;;;;;;;1.92;0.32;;;7.00;99.90;;;;;;5051033;28;20037;-56
2023/03/06 09:45:53;;;;;;;2.17;0.20;;;7.10;99.90;;;;;;5054619;28;20043;-58
2023/03/06 09:48:27;;;;;;;1.27;0.30;;;7.10;99.90;;;;;;5051304;28;20032;-58
2023/03/06 09:51:16;;;;;;;4.80;0.40;;;7.20;99.90;;;;;;5051002;28;20127;-58
2023/03/06 09:54:09;;;;;;;1.02;0.20;;;7.30;99.90;;;;;;5050361;28;20560;-59
2023/03/06 09:56:35;;;;;;;2.95;0.75;;;7.40;99.90;;;;;;5050715;28;20055;-60
2023/03/06 09:59:16;;;;;;;1.65;0.68;;;7.40;99.90;;;;;;5051549;28;20044;-58
2023/03/06 10:01:46;;;;;;;2.60;0.30;;;7.40;99.90;;;;;;5047683;28;20463;-59
2023/03/06 10:04:39;;;;;;;2.95;0.20;;;7.40;99.90;;;;;;5049772;28;20044;-60
2023/03/06 10:07:20;;;;;;;1.38;0.20;;;7.60;99.90;;;;;;5054334;28;20048;-60
2023/03/06 10:10:03;;;;;;;0.52;0.20;;;7.60;99.90;;;;;;5054531;28;20045;-59
2023/03/06 10:12:42;;;;;;;1.73;0.20;;;7.50;99.90;;;;;;5056019;28;20045;-59
2023/03/06 10:15:20;;;;;;;0.93;0.20;;;7.60;99.90;;;;;;5048077;28;20474;-60
2023/03/06 10:17:46;;;;;;;1.60;0.20;;;7.70;99.90;;;;;;5051419;28;20067;-56
2023/03/06 10:20:19;;;;;;;1.10;0.20;;;7.80;99.90;;;;;;5054704;28;20406;-57
2023/03/06 10:23:15;;;;;;;3.22;0.30;;;8.00;99.90;;;;;;5050798;28;20032;-57
2023/03/06 10:26:01;;;;;;;0.95;0.20;;;8.10;99.90;;;;;;5053189;28;20480;-56
2023/03/06 10:28:35;;;;;;;0.95;0.20;;;8.20;99.90;;;;;;5052943;28;20028;-57
2023/03/06 10:31:13;;;;;;;1.45;0.30;;;8.20;99.90;;;;;;5051233;28;20036;-57
2023/03/06 10:33:38;;;;;;;0.82;0.10;;;8.20;99.90;;;;;;5052463;28;20040;-55
2023/03/06 10:36:04;;;;;;;1.17;0.23;;;8.30;99.90;;;;;;5052923;28;20043;-58
2023/03/06 10:38:30;;;;;;;1.38;0.22;;;8.40;99.90;;;;;;5048653;28;20401;-56
2023/03/06 10:41:04;;;;;;;1.57;0.20;;;8.50;99.90;;;;;;5049170;28;20127;-57
2023/03/06 10:43:30;;;;;;;1.48;0.10;;;8.70;99.30;;;;;;5051828;28;20101;-54
2023/03/06 10:45:56;;;;;;;3.05;0.20;;;8.70;97.80;;;;;;5058467;28;20502;-57
2023/03/06 10:48:24;;;;;;;3.95;0.30;;;8.80;99.00;;;;;;5049194;28;20036;-55
2023/03/06 10:50:51;;;;;;;1.05;0.17;;;8.80;97.80;;;;;;5051983;28;20051;-54
2023/03/06 10:53:31;;;;;;;9.88;0.30;;;8.80;97.90;;;;;;5052083;28;20128;-55
2023/03/06 10:55:58;;;;;;;2.40;0.10;;;8.80;98.90;;;;;;5048266;28;20041;-58
2023/03/06 10:58:25;;;;;;;4.13;0.70;;;8.70;98.90;;;;;;5052838;28;20157;-57
2023/03/06 11:01:05;;;;;;;2.88;0.20;;;8.60;98.40;;;;;;5051161;28;20041;-58
2023/03/06 11:03:33;;;;;;;0.93;0.40;;;8.40;98.10;;;;;;5050409;28;20145;-55
2023/03/06 11:06:13;;;;;;;2.75;0.20;;;8.30;97.30;;;;;;5041324;28;20045;-58
2023/03/06 11:08:42;;;;;;;1.30;0.10;;;8.20;97.10;;;;;;5050367;28;20064;-57
2023/03/06 11:11:12;;;;;;;3.78;0.20;;;8.10;96.00;;;;;;5048818;28;20081;-59
2023/03/06 11:13:40;;;;;;;1.65;0.20;;;8.20;96.30;;;;;;5051183;28;20052;-55
2023/03/06 11:16:37;;;;;;;2.78;0.40;;;8.30;96.70;;;;;;5054294;28;20032;-58
2023/03/06 11:19:05;;;;;;;0.70;0.20;;;8.30;95.80;;;;;;4957607;28;20077;-59
2023/03/06 11:21:36;;;;;;;1.52;0.28;;;8.30;95.70;;;;;;4972188;28;20073;-55
2023/03/06 11:24:16;;;;;;;1.13;0.15;;;8.20;95.60;;;;;;4971078;28;20142;-55
2023/03/06 11:26:55;;;;;;;3.13;0.20;;;8.20;96.40;;;;;;4968978;28;20488;-55
2023/03/06 11:29:42;;;;;;;1.65;0.20;;;8.20;96.20;;;;;;4970198;28;20126;-62
2023/03/06 11:32:21;;;;;;;1.50;0.17;;;8.30;96.70;;;;;;4968030;28;20034;-59
2023/03/06 11:34:57;;;;;;;0.85;0.20;;;8.30;97.00;;;;;;4956990;28;20101;-58
2023/03/06 11:37:31;;;;;;;0.85;0.10;;;8.20;96.80;;;;;;4954695;28;20054;-58
2023/03/06 11:40:09;;;;;;;6.55;0.20;;;8.10;96.70;;;;;;4952930;28;20101;-58
2023/03/06 11:43:09;;;;;;;2.50;0.70;;;8.10;96.80;;;;;;4971610;28;20527;-58
2023/03/06 11:45:43;;;;;;;1.75;0.28;;;8.10;97.10;;;;;;4973172;28;20041;-57
2023/03/06 11:48:16;;;;;;;2.00;0.20;;;8.10;96.80;;;;;;4952909;28;20098;-58
2023/03/06 11:50:47;;;;;;;0.63;0.20;;;8.10;96.70;;;;;;4971895;28;20467;-57
2023/03/06 11:53:18;;;;;;;1.65;0.10;;;8.20;97.50;;;;;;4969937;28;20065;-60
2023/03/06 11:55:55;;;;;;;1.60;0.40;;;8.20;97.00;;;;;;5016471;28;20048;-59
2023/03/06 11:58:39;;;;;;;0.57;0.10;;;8.10;97.50;;;;;;5040711;28;20292;-56
2023/03/06 12:01:19;;;;;;;2.95;0.43;;;8.00;97.00;;;;;;5051558;28;20456;-59
2023/03/06 12:03:50;;;;;;;3.85;0.52;;;7.80;97.20;;;;;;5045078;28;20243;-55
2023/03/06 12:06:31;;;;;;;3.03;0.30;;;7.60;97.50;;;;;;5052917;28;20070;-57
2023/03/06 12:09:16;;;;;;;2.70;0.40;;;7.60;98.00;;;;;;5050450;28;20040;-57
2023/03/06 12:12:08;;;;;;;1.48;0.10;;;7.40;97.60;;;;;;5053689;28;20542;-56
2023/03/06 12:14:51;;;;;;;2.10;0.20;;;7.40;98.00;;;;;;5035070;28;20041;-55
2023/03/06 12:17:54;;;;;;;0.65;0.40;;;7.60;98.90;;;;;;5052263;28;20037;-59
2023/03/06 12:20:19;;;;;;;1.20;0.20;;;7.70;98.10;;;;;;5050235;28;20830;-57
2023/03/06 12:22:52;;;;;;;1.53;0.20;;;7.70;98.00;;;;;;5053646;28;20503;-56
2023/03/06 12:25:30;;;;;;;1.85;0.20;;;7.70;97.70;;;;;;5048824;28;20048;-58
2023/03/06 12:28:21;;;;;;;0.43;0.10;;;7.80;97.00;;;;;;5036774;28;20040;-58
2023/03/06 12:31:09;;;;;;;1.38;0.20;;;7.90;96.40;;;;;;5049139;28;20076;-56
2023/03/06 12:33:57;;;;;;;1.30;0.30;;;7.90;96.10;;;;;;5051106;28;20409;-57
2023/03/06 12:36:44;;;;;;;0.50;0.20;;;8.10;95.60;;;;;;5050410;28;20063;-58
2023/03/06 12:39:34;;;;;;;2.67;0.20;;;8.20;95.90;;;;;;5048071;28;20047;-57
2023/03/06 12:42:18;;;;;;;1.00;0.20;;;8.30;96.50;;;;;;5047518;28;20558;-55
2023/03/06 12:45:19;;;;;;;1.40;0.28;;;8.30;96.40;;;;;;5048518;28;20044;-58
2023/03/06 12:47:47;;;;;;;0.77;0.20;;;8.10;95.70;;;;;;5044166;28;20116;-59
2023/03/06 12:50:17;;;;;;;0.22;0.20;;;7.90;94.20;;;;;;5057705;28;20693;-57
2023/03/06 12:52:43;;;;;;;1.05;0.20;;;7.80;95.40;;;;;;5052381;28;20149;-57
2023/03/06 12:55:14;;;;;;;1.08;0.20;;;7.80;95.80;;;;;;5060340;28;20239;-57
2023/03/06 12:57:40;;;;;;;2.35;0.30;;;7.70;96.20;;;;;;5051562;28;20032;-57
2023/03/06 13:00:27;;;;;;;3.50;0.43;;;7.60;96.40;;;;;;5055643;28;20120;-54
2023/03/06 13:03:08;;;;;;;2.35;0.20;;;7.50;96.00;;;;;;5055129;28;20048;-58
2023/03/06 13:05:48;;;;;;;2.20;0.90;;;7.60;96.60;;;;;;5055985;28;20405;-58
2023/03/06 13:08:39;;;;;;;1.95;0.47;;;7.60;95.80;;;;;;5050600;28;20114;-57